This is the latest recevied weather packets stored in our database for station/object 9W2CEW-1. If no packets are shown the sender has not sent any weather packets the latest 10 day(s).
| Time | Temp. | Humidity | Pressure | Rain* | Wind** | Luminosity | Snow |
|---|---|---|---|---|---|---|---|
| 1777777445 | 37.78° C | 47% | 1004.8 hPa | - | - | - | - |
| 1777776627 | 35° C | 57% | 1004.9 hPa | - | - | - | - |
| 1777776545 | 35° C | 57% | 1004.9 hPa | - | - | - | - |
| 1777775708 | 35.56° C | 57% | 1004.9 hPa | - | - | - | - |
| 1777775645 | 35.56° C | 57% | 1004.9 hPa | - | - | - | - |
| 1777774874 | 36.11° C | 55% | 1004.9 hPa | - | - | - | - |
| 1777774745 | 36.11° C | 55% | 1004.9 hPa | - | - | - | - |
| 1777773894 | 35.56° C | 54% | 1004.6 hPa | - | - | - | - |
| 1777773848 | 35.56° C | 54% | 1004.6 hPa | - | - | - | - |
| 1777773043 | 36.11° C | 53% | 1004.6 hPa | - | - | - | - |
| 1777772946 | 36.11° C | 53% | 1004.6 hPa | - | - | - | - |
| 1777772046 | 37.78° C | 48% | 1004.6 hPa | - | - | - | - |
| 1777771224 | 36.11° C | 52% | 1004.3 hPa | - | - | - | - |
| 1777771146 | 36.11° C | 52% | 1004.3 hPa | - | - | - | - |
| 1777770354 | 35.56° C | 54% | 1004.2 hPa | - | - | - | - |
| 1777770246 | 35.56° C | 54% | 1004.2 hPa | - | - | - | - |
| 1777769404 | 36.11° C | 52% | 1004.1 hPa | - | - | - | - |
| 1777769346 | 36.11° C | 52% | 1004.1 hPa | - | - | - | - |
| 1777768446 | 35.56° C | 55% | 1003.9 hPa | - | - | - | - |
| 1777767698 | 35° C | 57% | 1003.6 hPa | - | - | - | - |
| 1777767581 | 35° C | 57% | 1003.6 hPa | - | - | - | - |
| 1777767546 | 35° C | 57% | 1003.6 hPa | - | - | - | - |
| 1777766646 | 33.89° C | 60% | 1003.5 hPa | - | - | - | - |
| 1777765746 | 32.78° C | 65% | 1003.2 hPa | - | - | - | - |
| 1777764913 | 31.67° C | 68% | 1003.3 hPa | - | - | - | - |
* Rain since midnight (hover to see other rain measurements)
** Current wind speed in m/s (hover to see current wind gust speed)